Time;durP1;ratioP1;P1;durP2;ratioP2;P2;SDS_P1;SDS_P2;PMS_P1;PMS_P2;Temp;Humidity;BMP_temperature;BMP_pressure;BME280_temperature;BME280_humidity;BME280_pressure;Samples;Min_cycle;Max_cycle;Signal;HPM_P1;HPM_P2
2022/12/24 00:02:14;;;;;;;1.37;1.23;;;;;;;11.89;100.00;95046.19;6092933;23;20188;-82
2022/12/24 00:04:41;;;;;;;1.87;1.27;;;;;;;11.92;100.00;95047.59;6093857;23;20199;-82
2022/12/24 00:07:07;;;;;;;2.43;1.20;;;;;;;11.94;100.00;95048.16;6093521;23;20199;-83
2022/12/24 00:09:34;;;;;;;1.43;1.20;;;;;;;11.91;100.00;95064.06;6093548;23;20180;-83
2022/12/24 00:12:01;;;;;;;1.40;1.00;;;;;;;11.93;100.00;95073.16;6093955;23;20176;-82
2022/12/24 00:14:29;;;;;;;1.30;1.20;;;;;;;11.93;99.79;95082.72;6064393;23;20692;-83
2022/12/24 00:16:56;;;;;;;0.97;0.90;;;;;;;11.88;98.94;95070.41;6064453;23;20184;-82
2022/12/24 00:19:22;;;;;;;2.03;1.50;;;;;;;11.93;98.17;95074.97;6065295;23;20639;-83
2022/12/24 00:21:48;;;;;;;1.60;1.30;;;;;;;11.95;98.71;95093.59;6063778;23;20209;-81
2022/12/24 00:24:15;;;;;;;2.90;1.50;;;;;;;11.96;97.69;95084.88;6064609;23;20204;-82
2022/12/24 00:26:41;;;;;;;1.37;1.27;;;;;;;12.00;97.47;95081.72;6065174;23;20180;-83
2022/12/24 00:29:10;;;;;;;1.53;1.00;;;;;;;12.03;96.70;95078.75;6064159;23;20232;-81
2022/12/24 00:31:37;;;;;;;2.23;1.10;;;;;;;12.00;96.94;95094.63;6064422;23;20723;-82
2022/12/24 00:34:03;;;;;;;1.20;0.90;;;;;;;12.01;98.06;95080.72;6064666;23;20180;-82
2022/12/24 00:36:30;;;;;;;1.67;0.87;;;;;;;12.08;97.33;95078.16;6064986;23;20179;-83
2022/12/24 00:38:56;;;;;;;3.27;1.67;;;;;;;12.07;96.45;95082.53;6065168;23;20188;-84
2022/12/24 00:41:27;;;;;;;2.40;1.40;;;;;;;12.09;97.34;95092.66;6065285;23;20197;-82
2022/12/24 00:43:56;;;;;;;1.17;0.90;;;;;;;12.10;95.03;95104.56;6065414;23;20188;-82
2022/12/24 00:46:24;;;;;;;0.70;0.70;;;;;;;12.10;95.19;95118.25;6064856;23;20188;-82
2022/12/24 00:48:51;;;;;;;1.07;0.97;;;;;;;12.11;94.34;95124.22;6064656;23;20177;-82
2022/12/24 00:51:18;;;;;;;1.63;1.00;;;;;;;12.17;95.04;95133.72;6064867;23;20204;-83
2022/12/24 00:53:44;;;;;;;1.03;1.03;;;;;;;12.22;94.93;95118.47;6064505;23;20180;-82
2022/12/24 00:56:10;;;;;;;1.50;1.20;;;;;;;12.18;96.18;95125.00;6063923;23;20643;-83
2022/12/24 00:58:37;;;;;;;1.87;1.00;;;;;;;12.18;95.92;95139.69;6064229;23;20173;-83
2022/12/24 01:01:04;;;;;;;2.27;1.50;;;;;;;12.20;95.73;95130.75;6063727;23;20760;-82
2022/12/24 01:03:35;;;;;;;1.17;1.07;;;;;;;12.17;95.78;95126.00;6064554;23;20256;-83
2022/12/24 01:06:00;;;;;;;1.70;1.03;;;;;;;12.22;95.74;95123.63;6064684;23;20165;-83
2022/12/24 01:08:27;;;;;;;1.00;0.90;;;;;;;12.20;94.79;95135.91;6064877;23;20188;-82
2022/12/24 01:10:54;;;;;;;0.80;0.80;;;;;;;12.20;93.91;95141.09;6064894;23;20758;-83
2022/12/24 01:13:20;;;;;;;2.87;2.17;;;;;;;12.17;93.74;95146.63;6064772;23;20180;-82
2022/12/24 01:15:46;;;;;;;2.07;1.80;;;;;;;12.18;93.38;95142.25;6064879;23;20189;-82
2022/12/24 01:18:13;;;;;;;3.43;1.60;;;;;;;12.15;92.76;95150.41;6064670;23;20786;-83
2022/12/24 01:20:41;;;;;;;1.60;1.40;;;;;;;12.16;93.49;95146.81;6063832;23;20698;-82
2022/12/24 01:23:07;;;;;;;1.53;1.30;;;;;;;12.12;92.03;95146.44;6063948;23;20165;-82
2022/12/24 01:25:33;;;;;;;1.33;1.00;;;;;;;12.05;92.45;95146.44;6064219;23;20199;-82
2022/12/24 01:28:00;;;;;;;0.70;0.70;;;;;;;12.07;93.06;95146.25;6063706;23;20180;-82
2022/12/24 01:30:26;;;;;;;1.97;0.80;;;;;;;12.04;92.77;95159.53;6063309;23;20224;-82
2022/12/24 01:32:53;;;;;;;1.53;0.90;;;;;;;12.01;92.49;95165.06;6066086;23;20185;-83
2022/12/24 01:35:19;;;;;;;1.43;1.20;;;;;;;12.00;92.55;95166.84;6066014;23;20181;-82
2022/12/24 01:37:47;;;;;;;1.27;1.17;;;;;;;11.97;93.08;95169.81;6065232;23;20177;-83
2022/12/24 01:45:49;;;;;;;1.80;1.00;;;;;;;11.90;92.38;95183.72;6066289;23;20167;-83
2022/12/24 01:48:32;;;;;;;3.13;2.30;;;;;;;11.90;92.28;95197.41;6065939;23;20177;-81
2022/12/24 01:51:02;;;;;;;1.87;1.00;;;;;;;11.82;91.92;95192.41;6066147;23;20200;-83
2022/12/24 01:53:31;;;;;;;1.63;1.03;;;;;;;11.77;92.86;95199.91;6066336;23;20239;-82
2022/12/24 01:55:58;;;;;;;0.90;0.90;;;;;;;11.74;92.67;95197.69;6066493;23;20185;-82
2022/12/24 01:58:26;;;;;;;1.20;0.97;;;;;;;11.77;92.82;95203.28;6065957;23;20188;-83
2022/12/24 02:00:53;;;;;;;1.23;1.10;;;;;;;11.79;92.72;95204.88;6065768;23;20205;-83
2022/12/24 02:03:20;;;;;;;2.20;1.10;;;;;;;11.82;92.42;95210.47;6066282;23;20192;-82
2022/12/24 02:05:49;;;;;;;1.90;0.97;;;;;;;11.84;92.45;95205.13;6066359;23;20184;-83
2022/12/24 02:08:17;;;;;;;0.83;0.83;;;;;;;11.83;92.24;95204.31;6065584;23;20208;-83
2022/12/24 02:10:45;;;;;;;1.40;1.10;;;;;;;11.82;92.12;95202.72;6066508;23;20204;-82
2022/12/24 02:13:13;;;;;;;2.13;1.00;;;;;;;11.80;91.75;95211.63;6066938;23;20181;-84
2022/12/24 02:15:51;;;;;;;1.30;1.20;;;;;;;11.84;92.07;95215.44;6065793;23;20177;-82
2022/12/24 02:18:26;;;;;;;1.10;0.97;;;;;;;11.84;91.77;95216.22;6066443;23;20548;-83
2022/12/24 02:21:32;;;;;;;1.37;0.80;;;;;;;11.77;91.34;95207.66;6064717;23;20215;-81
2022/12/24 02:24:47;;;;;;;1.23;0.80;;;;;;;11.75;91.20;95212.19;6056081;23;20203;-81
2022/12/24 02:27:26;;;;;;;1.50;0.80;;;;;;;11.74;91.08;95211.38;6066048;23;20165;-83
2022/12/24 02:30:14;;;;;;;1.03;0.93;;;;;;;11.71;90.95;95208.41;6066133;23;20204;-82
2022/12/24 02:32:55;;;;;;;2.13;1.00;;;;;;;11.68;90.46;95209.59;6066315;23;20166;-83
2022/12/24 02:35:30;;;;;;;1.40;1.20;;;;;;;11.76;89.99;95216.38;6066448;23;20157;-82
2022/12/24 02:38:03;;;;;;;1.77;1.10;;;;;;;11.79;89.73;95220.38;6065700;23;20171;-82
2022/12/24 02:40:34;;;;;;;0.80;0.80;;;;;;;11.70;88.82;95225.66;6066388;23;20200;-82
2022/12/24 02:43:05;;;;;;;1.83;1.20;;;;;;;11.75;87.95;95232.81;6064915;23;20172;-83
2022/12/24 02:45:35;;;;;;;2.07;1.10;;;;;;;11.68;86.91;95232.00;6065504;23;20675;-83
2022/12/24 02:48:02;;;;;;;2.37;1.13;;;;;;;11.63;86.86;95239.50;6065530;23;20591;-82
2022/12/24 02:50:29;;;;;;;1.50;0.90;;;;;;;11.66;86.49;95234.78;6064793;23;20280;-82
2022/12/24 02:52:55;;;;;;;1.70;0.97;;;;;;;11.68;86.46;95227.66;6066055;23;20213;-83
2022/12/24 02:55:26;;;;;;;1.83;0.93;;;;;;;11.68;84.77;95242.31;6065920;23;20589;-81
2022/12/24 02:58:07;;;;;;;1.07;0.70;;;;;;;11.74;85.02;95250.06;6065190;23;20172;-82
2022/12/24 03:00:50;;;;;;;1.77;1.10;;;;;;;11.76;83.93;95253.28;6065224;23;20587;-83
2022/12/24 03:03:33;;;;;;;1.70;1.20;;;;;;;11.75;83.72;95251.66;6065912;23;20165;-82
2022/12/24 03:06:08;;;;;;;1.53;0.83;;;;;;;11.80;83.50;95253.69;6065649;23;20162;-82
2022/12/24 03:08:43;;;;;;;1.00;0.80;;;;;;;11.70;82.84;95248.88;6065747;23;20175;-83
2022/12/24 03:11:11;;;;;;;2.57;0.90;;;;;;;11.66;83.16;95245.09;6065783;23;20200;-82
2022/12/24 03:13:38;;;;;;;1.90;1.10;;;;;;;11.68;82.72;95247.47;6065245;23;20177;-83
2022/12/24 03:16:10;;;;;;;1.00;0.90;;;;;;;11.72;82.77;95249.50;6066015;23;20204;-82
2022/12/24 03:18:39;;;;;;;1.23;0.93;;;;;;;11.76;82.39;95258.44;6065187;23;20679;-82
2022/12/24 03:21:11;;;;;;;1.77;0.87;;;;;;;11.76;82.40;95250.72;6063485;23;20766;-82
2022/12/24 03:23:38;;;;;;;1.83;1.00;;;;;;;11.72;81.73;95257.22;6065894;23;20157;-82
2022/12/24 03:26:08;;;;;;;1.20;1.07;;;;;;;11.68;81.41;95248.28;6064875;23;20177;-83
2022/12/24 03:28:38;;;;;;;1.20;1.10;;;;;;;11.66;82.00;95246.88;6065556;23;20161;-82
2022/12/24 03:31:08;;;;;;;2.37;0.93;;;;;;;11.69;81.87;95249.06;6065538;23;20591;-82
2022/12/24 03:33:34;;;;;;;1.80;1.07;;;;;;;11.62;81.42;95259.34;6065091;23;20180;-84
2022/12/24 03:36:01;;;;;;;1.27;1.00;;;;;;;11.67;81.95;95256.19;6065674;23;20496;-82
2022/12/24 03:38:27;;;;;;;1.63;1.10;;;;;;;11.70;82.23;95260.97;6065272;23;20180;-82
2022/12/24 03:40:54;;;;;;;2.07;1.13;;;;;;;11.71;81.69;95267.72;6065104;23;20207;-82
2022/12/24 03:43:20;;;;;;;1.87;1.17;;;;;;;11.75;82.01;95277.44;6065461;23;20180;-84
2022/12/24 03:45:47;;;;;;;1.10;1.00;;;;;;;11.75;81.48;95277.44;6065767;23;20217;-83
2022/12/24 03:48:14;;;;;;;1.93;1.10;;;;;;;11.77;81.60;95280.66;6064985;23;20639;-82
2022/12/24 03:50:41;;;;;;;2.13;1.10;;;;;;;11.74;81.43;95287.97;6064084;23;20534;-83
2022/12/24 03:53:07;;;;;;;0.90;0.90;;;;;;;11.80;81.73;95269.19;6065298;23;20189;-82
2022/12/24 03:55:33;;;;;;;2.10;0.97;;;;;;;11.77;81.25;95261.81;6064472;23;20228;-82
2022/12/24 03:58:00;;;;;;;0.83;0.83;;;;;;;11.70;81.40;95259.19;6064974;23;20793;-83
2022/12/24 04:00:26;;;;;;;1.07;0.97;;;;;;;11.70;81.85;95269.50;6065470;23;20208;-83
2022/12/24 04:02:53;;;;;;;0.87;0.87;;;;;;;11.73;81.90;95286.41;6064890;23;20185;-82
2022/12/24 04:05:21;;;;;;;3.30;1.00;;;;;;;11.69;82.14;95304.03;6064470;23;20204;-82
2022/12/24 04:07:48;;;;;;;1.10;1.00;;;;;;;11.67;81.51;95298.25;6064127;23;20714;-83
2022/12/24 04:10:15;;;;;;;1.20;0.90;;;;;;;11.67;81.79;95300.03;6064576;23;20201;-82
2022/12/24 04:12:42;;;;;;;1.10;0.97;;;;;;;11.70;81.60;95302.25;6064964;23;20181;-83
2022/12/24 04:15:09;;;;;;;1.10;1.00;;;;;;;11.72;81.36;95308.81;6064907;23;20177;-83
2022/12/24 04:17:36;;;;;;;0.97;0.87;;;;;;;11.77;81.26;95310.81;6064401;23;20228;-83
2022/12/24 04:20:02;;;;;;;1.37;0.90;;;;;;;11.75;81.11;95317.91;6064437;23;20205;-83
2022/12/24 04:22:31;;;;;;;1.00;0.90;;;;;;;11.70;80.55;95320.28;6063495;23;20192;-82
2022/12/24 04:24:57;;;;;;;1.30;0.90;;;;;;;11.69;80.50;95321.28;6064533;23;20239;-82
2022/12/24 04:27:24;;;;;;;1.07;0.83;;;;;;;11.74;80.10;95330.03;6065115;23;20643;-82
2022/12/24 04:29:50;;;;;;;1.13;1.00;;;;;;;11.71;80.14;95329.63;6064514;23;20228;-82
2022/12/24 04:32:16;;;;;;;2.10;1.00;;;;;;;11.72;80.00;95339.75;6065141;23;20244;-83
2022/12/24 04:34:46;;;;;;;1.40;1.00;;;;;;;11.70;80.03;95351.25;6065544;23;20173;-83
2022/12/24 04:37:12;;;;;;;1.93;1.10;;;;;;;11.68;79.76;95341.13;6065421;23;20187;-83
2022/12/24 04:39:40;;;;;;;1.93;1.00;;;;;;;11.71;80.06;95337.38;6065072;23;20252;-83
2022/12/24 04:42:06;;;;;;;2.00;0.90;;;;;;;11.74;79.93;95334.38;6065096;23;20181;-82
2022/12/24 04:44:33;;;;;;;1.27;0.80;;;;;;;11.73;79.65;95333.63;6064886;23;20560;-83
2022/12/24 04:46:59;;;;;;;2.13;1.00;;;;;;;11.77;79.66;95339.19;6064792;23;20183;-83
2022/12/24 04:49:26;;;;;;;1.00;1.00;;;;;;;11.84;79.46;95352.94;6065483;23;20189;-83
2022/12/24 04:51:52;;;;;;;2.50;0.80;;;;;;;11.73;79.45;95350.88;6065042;23;20200;-82
2022/12/24 04:54:18;;;;;;;1.10;0.87;;;;;;;11.71;79.81;95353.63;6065017;23;20233;-82
2022/12/24 04:56:46;;;;;;;1.37;0.80;;;;;;;11.70;79.79;95354.63;6065165;23;20177;-83
2022/12/24 04:59:12;;;;;;;0.87;0.70;;;;;;;11.73;79.59;95361.19;6065274;23;20232;-83
2022/12/24 05:01:39;;;;;;;1.27;0.87;;;;;;;11.72;79.46;95367.31;6065087;23;20200;-82
2022/12/24 05:04:06;;;;;;;3.20;1.40;;;;;;;11.72;79.74;95362.97;6065282;23;20209;-84
2022/12/24 05:06:33;;;;;;;1.77;0.97;;;;;;;11.73;79.37;95354.25;6066181;23;20256;-82
2022/12/24 05:09:00;;;;;;;2.27;0.90;;;;;;;11.79;79.12;95362.22;6066210;23;20181;-83
2022/12/24 05:11:27;;;;;;;0.97;0.90;;;;;;;11.76;78.64;95364.19;6067001;23;20197;-82
2022/12/24 05:13:54;;;;;;;2.27;1.00;;;;;;;11.83;78.75;95356.50;6067523;23;20177;-82
2022/12/24 05:16:22;;;;;;;5.40;1.13;;;;;;;11.82;78.55;95352.34;6066597;23;20177;-82
2022/12/24 05:18:49;;;;;;;1.10;1.00;;;;;;;11.81;78.28;95360.25;6066042;23;20173;-83
2022/12/24 05:21:18;;;;;;;3.10;1.20;;;;;;;11.81;78.02;95363.63;6065829;23;20209;-83
2022/12/24 05:26:33;;;;;;;0.93;0.90;;;;;;;11.78;78.37;95374.31;6066391;23;20259;-83
2022/12/24 05:29:02;;;;;;;2.83;1.03;;;;;;;11.76;77.67;95378.88;6065530;23;20165;-81
2022/12/24 05:31:32;;;;;;;1.60;1.00;;;;;;;11.78;78.02;95371.75;6066635;23;20209;-83
2022/12/24 05:33:58;;;;;;;1.67;0.90;;;;;;;11.83;77.42;95374.56;6066472;23;20180;-83
2022/12/24 05:36:25;;;;;;;1.43;1.00;;;;;;;11.84;77.30;95375.34;6066338;23;20181;-83
2022/12/24 05:38:52;;;;;;;0.90;0.73;;;;;;;11.81;77.24;95366.22;6066397;23;20176;-83
2022/12/24 05:41:18;;;;;;;2.03;0.90;;;;;;;11.81;77.13;95376.53;6065925;23;20260;-82
2022/12/24 05:43:45;;;;;;;1.67;1.00;;;;;;;11.81;77.12;95386.03;6066330;23;20236;-82
2022/12/24 05:46:14;;;;;;;1.30;0.90;;;;;;;11.77;76.90;95393.34;6066598;23;20201;-83
2022/12/24 05:48:41;;;;;;;1.80;1.00;;;;;;;11.73;76.79;95395.50;6065759;23;20239;-81
2022/12/24 05:51:09;;;;;;;1.97;0.83;;;;;;;11.68;76.56;95387.53;6066528;23;20197;-83
2022/12/24 05:53:36;;;;;;;1.50;0.90;;;;;;;11.66;76.18;95409.34;6065673;23;20240;-83
2022/12/24 05:56:04;;;;;;;1.43;0.97;;;;;;;11.68;76.27;95403.00;6066513;23;20208;-83
2022/12/24 05:58:31;;;;;;;1.30;1.20;;;;;;;11.67;75.71;95403.19;6065580;23;20540;-81
2022/12/24 06:00:58;;;;;;;1.23;0.97;;;;;;;11.67;75.29;95395.47;6066195;23;20201;-83
2022/12/24 06:03:26;;;;;;;1.00;0.80;;;;;;;11.69;75.07;95390.91;6062771;23;20236;-82
2022/12/24 06:05:59;;;;;;;2.93;1.00;;;;;;;11.72;74.81;95406.81;6065188;23;20201;-83
2022/12/24 06:08:25;;;;;;;2.47;1.10;;;;;;;11.70;74.69;95413.94;6065399;23;20169;-83
2022/12/24 06:10:54;;;;;;;3.37;0.90;;;;;;;11.70;74.25;95407.97;6065445;23;20229;-82
2022/12/24 06:13:21;;;;;;;2.07;1.10;;;;;;;11.67;74.61;95414.31;6065452;23;20189;-83
2022/12/24 06:15:47;;;;;;;3.73;1.23;;;;;;;11.65;74.71;95424.00;6066131;23;20177;-82
2022/12/24 06:18:14;;;;;;;2.37;1.17;;;;;;;11.69;74.87;95427.81;6065724;23;20706;-83
2022/12/24 06:20:41;;;;;;;1.30;1.03;;;;;;;11.68;75.25;95428.78;6064624;23;20212;-82
2022/12/24 06:23:08;;;;;;;2.00;1.17;;;;;;;11.67;75.63;95428.97;6065415;23;20572;-82
2022/12/24 06:25:34;;;;;;;3.30;1.20;;;;;;;11.71;75.95;95417.31;6066131;23;20212;-82
2022/12/24 06:28:00;;;;;;;1.20;1.00;;;;;;;11.72;76.13;95411.97;6065605;23;20184;-82
2022/12/24 06:30:27;;;;;;;2.23;1.00;;;;;;;11.67;76.54;95428.97;6066646;23;20205;-83
2022/12/24 06:32:53;;;;;;;1.77;1.00;;;;;;;11.67;76.90;95424.63;6066186;23;20183;-83
2022/12/24 06:35:20;;;;;;;2.13;1.03;;;;;;;11.68;77.43;95421.06;6065609;23;20183;-82
2022/12/24 06:37:47;;;;;;;1.20;1.10;;;;;;;11.69;77.60;95425.22;6064839;23;20726;-82
2022/12/24 06:40:14;;;;;;;1.13;1.00;;;;;;;11.72;77.68;95435.19;6065982;23;20209;-83
2022/12/24 06:42:40;;;;;;;1.93;0.90;;;;;;;11.67;77.71;95429.78;6065979;23;20181;-81
2022/12/24 06:45:07;;;;;;;1.83;0.93;;;;;;;11.65;77.99;95431.75;6061564;23;20200;-83
2022/12/24 06:47:34;;;;;;;0.87;0.80;;;;;;;11.52;78.53;95426.50;6063605;23;20786;-83
2022/12/24 06:50:00;;;;;;;2.53;0.90;;;;;;;11.56;78.47;95444.94;6064482;23;20200;-83
2022/12/24 06:52:27;;;;;;;1.83;1.00;;;;;;;11.59;78.05;95439.41;6066379;23;20180;-83
2022/12/24 06:54:54;;;;;;;2.07;1.10;;;;;;;11.61;77.52;95437.44;6066123;23;20670;-84
2022/12/24 06:57:21;;;;;;;1.40;0.90;;;;;;;11.46;76.78;95445.28;6066865;23;20472;-84
2022/12/24 06:59:47;;;;;;;1.17;1.00;;;;;;;11.44;76.77;95449.81;6065913;23;20180;-84
2022/12/24 07:02:14;;;;;;;1.33;1.00;;;;;;;11.46;76.38;95460.75;6064889;23;20180;-83
2022/12/24 07:04:40;;;;;;;0.73;0.73;;;;;;;11.39;75.69;95454.72;6065768;23;20181;-83
2022/12/24 07:07:06;;;;;;;0.90;0.90;;;;;;;11.42;75.59;95442.25;6065551;23;20229;-83
2022/12/24 07:09:33;;;;;;;1.10;0.80;;;;;;;11.34;75.14;95444.19;6065794;23;20302;-82
2022/12/24 07:12:00;;;;;;;2.00;0.83;;;;;;;11.35;75.19;95456.84;6065661;23;20204;-82
2022/12/24 07:14:27;;;;;;;1.83;1.17;;;;;;;11.33;74.85;95456.28;6065978;23;20698;-84
2022/12/24 07:16:53;;;;;;;1.73;0.90;;;;;;;11.34;74.71;95451.91;6066363;23;20195;-82
2022/12/24 07:19:20;;;;;;;1.17;0.60;;;;;;;11.32;74.63;95459.03;6064599;23;20184;-83
2022/12/24 07:21:46;;;;;;;1.03;0.80;;;;;;;11.34;74.44;95457.88;6064474;23;20209;-83
2022/12/24 07:24:12;;;;;;;2.30;0.90;;;;;;;11.40;74.01;95476.94;6064951;23;20177;-83
2022/12/24 07:26:39;;;;;;;1.07;0.87;;;;;;;11.38;73.52;95473.75;6064830;23;20208;-82
2022/12/24 07:29:07;;;;;;;1.13;0.90;;;;;;;11.42;73.36;95482.72;6064092;23;20292;-83
2022/12/24 07:31:33;;;;;;;0.70;0.70;;;;;;;11.47;73.19;95480.38;6065114;23;20252;-83
2022/12/24 07:33:59;;;;;;;1.17;0.83;;;;;;;11.45;73.19;95484.13;6064445;23;20184;-83
2022/12/24 07:36:27;;;;;;;1.00;0.90;;;;;;;11.36;72.13;95478.28;6065083;23;20671;-83
2022/12/24 07:38:53;;;;;;;1.63;0.73;;;;;;;11.20;71.26;95484.47;6065323;23;20263;-84
2022/12/24 07:41:20;;;;;;;2.47;0.80;;;;;;;11.30;71.64;95491.91;6064706;23;20465;-84
2022/12/24 07:43:46;;;;;;;1.00;0.90;;;;;;;11.32;71.06;95500.25;6064604;23;20185;-83
2022/12/24 07:46:14;;;;;;;2.40;0.80;;;;;;;11.30;70.35;95500.44;6066366;23;20201;-83
2022/12/24 07:48:41;;;;;;;0.87;0.80;;;;;;;11.23;69.85;95509.09;6064793;23;20181;-82
2022/12/24 07:51:08;;;;;;;1.13;0.90;;;;;;;11.18;69.55;95509.63;6066237;23;20201;-83
2022/12/24 07:53:34;;;;;;;1.53;0.97;;;;;;;11.15;69.66;95524.66;6066222;23;20256;-82
2022/12/24 07:56:00;;;;;;;0.73;0.70;;;;;;;11.12;69.39;95519.88;6066058;23;20180;-83
2022/12/24 07:58:27;;;;;;;0.93;0.70;;;;;;;11.14;69.31;95533.38;6065139;23;20528;-82
2022/12/24 08:00:58;;;;;;;1.67;1.20;;;;;;;11.34;77.94;95532.63;6067904;23;20678;-82
2022/12/24 08:03:26;;;;;;;4.93;1.60;;;;;;;11.70;78.83;95539.50;6069447;23;20236;-82
2022/12/24 08:05:52;;;;;;;2.33;1.13;;;;;;;11.98;74.48;95545.53;6065156;23;20204;-83
2022/12/24 08:08:19;;;;;;;0.70;0.70;;;;;;;11.79;67.30;95535.84;6066703;23;20207;-84
2022/12/24 08:10:46;;;;;;;0.80;0.80;;;;;;;11.65;66.93;95540.06;6065594;23;20188;-83
2022/12/24 08:13:13;;;;;;;0.97;0.80;;;;;;;11.51;67.07;95540.91;6065289;23;20181;-83
2022/12/24 08:15:39;;;;;;;0.80;0.80;;;;;;;11.32;67.62;95542.31;6065800;23;20181;-82
2022/12/24 08:18:06;;;;;;;3.17;0.70;;;;;;;11.26;68.30;95553.34;6067594;23;20177;-84
2022/12/24 08:20:36;;;;;;;2.07;0.93;;;;;;;11.24;67.96;95560.44;6066596;23;20241;-83
2022/12/24 08:23:02;;;;;;;0.70;0.70;;;;;;;11.24;68.06;95567.38;6067507;23;20189;-84
2022/12/24 08:25:29;;;;;;;1.30;0.80;;;;;;;11.26;68.07;95563.66;6067847;23;20185;-81
2022/12/24 08:27:56;;;;;;;2.00;0.70;;;;;;;11.08;67.73;95574.34;6067458;23;20209;-83
2022/12/24 08:30:23;;;;;;;1.40;0.70;;;;;;;11.06;67.51;95570.34;6068616;23;20200;-83
2022/12/24 08:32:49;;;;;;;3.10;0.80;;;;;;;11.00;68.07;95569.28;6069299;23;20555;-83
2022/12/24 08:35:16;;;;;;;0.70;0.70;;;;;;;11.07;68.02;95574.50;6067441;23;20177;-84
2022/12/24 08:37:43;;;;;;;1.20;0.80;;;;;;;11.03;67.67;95578.41;6068771;23;20181;-82
2022/12/24 08:40:12;;;;;;;0.97;0.60;;;;;;;11.03;68.11;95571.50;6067314;23;20674;-84
2022/12/24 08:42:38;;;;;;;2.03;0.80;;;;;;;11.07;67.86;95577.88;6067848;23;20181;-82
2022/12/24 08:45:06;;;;;;;2.20;0.80;;;;;;;11.07;68.00;95577.88;6067411;23;20173;-82
2022/12/24 08:47:32;;;;;;;0.87;0.70;;;;;;;11.00;68.06;95582.16;6067587;23;20201;-83
2022/12/24 08:50:01;;;;;;;1.00;0.80;;;;;;;11.00;68.14;95587.31;6068228;23;20192;-82
2022/12/24 08:52:28;;;;;;;1.10;0.80;;;;;;;11.04;67.79;95585.16;6068275;23;20168;-83
2022/12/24 08:54:55;;;;;;;1.00;0.63;;;;;;;11.04;68.22;95592.91;6067736;23;20181;-83
2022/12/24 08:57:22;;;;;;;1.50;0.93;;;;;;;11.13;68.14;95599.56;6067178;23;20191;-83
2022/12/24 08:59:48;;;;;;;1.33;0.80;;;;;;;11.09;67.36;95603.47;6067054;23;20189;-83
2022/12/24 09:02:15;;;;;;;1.00;0.90;;;;;;;11.16;66.97;95606.16;6068517;23;20255;-84
2022/12/24 09:04:42;;;;;;;1.23;1.00;;;;;;;11.18;66.69;95619.63;6066854;23;20181;-82
2022/12/24 09:07:09;;;;;;;0.90;0.73;;;;;;;11.23;66.87;95620.69;6067342;23;20201;-83
2022/12/24 09:09:36;;;;;;;1.00;0.90;;;;;;;11.14;66.28;95637.25;6067700;23;20181;-83
2022/12/24 09:12:06;;;;;;;1.43;1.00;;;;;;;11.00;66.35;95628.53;6066572;23;20205;-84
2022/12/24 09:14:33;;;;;;;0.87;0.80;;;;;;;11.00;66.29;95632.88;6067965;23;20529;-84
2022/12/24 09:16:59;;;;;;;0.97;0.90;;;;;;;11.07;66.21;95641.50;6067462;23;20177;-83
2022/12/24 09:19:27;;;;;;;2.90;0.90;;;;;;;11.07;65.63;95652.59;6067928;23;20184;-82
2022/12/24 09:21:54;;;;;;;1.93;1.00;;;;;;;11.15;66.00;95656.09;6066982;23;20209;-82
2022/12/24 09:24:21;;;;;;;1.70;0.87;;;;;;;11.14;65.27;95652.72;6067240;23;20177;-83
2022/12/24 09:26:48;;;;;;;1.80;0.70;;;;;;;11.17;65.01;95660.06;6066656;23;20666;-85
2022/12/24 09:29:16;;;;;;;1.57;0.90;;;;;;;11.15;65.37;95659.47;6067608;23;20181;-83
2022/12/24 09:31:42;;;;;;;1.33;0.90;;;;;;;11.18;65.28;95651.34;6067795;23;20193;-82
2022/12/24 09:34:09;;;;;;;2.57;1.00;;;;;;;11.18;64.84;95651.34;6067888;23;20393;-84
2022/12/24 09:36:36;;;;;;;1.97;1.00;;;;;;;11.18;64.83;95658.28;6069236;23;20181;-84
2022/12/24 09:39:02;;;;;;;1.87;1.00;;;;;;;11.20;64.89;95658.91;6067767;23;20181;-83
2022/12/24 09:41:44;;;;;;;2.03;0.90;;;;;;;11.17;64.54;95648.94;6068741;23;20201;-85
2022/12/24 09:44:29;;;;;;;2.17;0.90;;;;;;;11.16;64.48;95657.69;6069247;23;20189;-84
2022/12/24 09:46:59;;;;;;;1.80;1.07;;;;;;;11.10;64.81;95641.16;6066044;23;20185;-82
2022/12/24 09:49:34;;;;;;;0.80;0.80;;;;;;;11.12;64.45;95641.78;6068326;23;20181;-82
2022/12/24 09:52:07;;;;;;;1.70;1.13;;;;;;;11.16;64.44;95630.13;6067271;23;20197;-83
2022/12/24 09:54:38;;;;;;;0.87;0.70;;;;;;;11.16;64.54;95649.97;6070194;23;20161;-81
2022/12/24 09:57:12;;;;;;;1.43;0.83;;;;;;;11.04;63.96;95645.22;6069182;23;20173;-83
2022/12/24 09:59:42;;;;;;;2.20;1.10;;;;;;;11.18;64.10;95648.78;6070277;23;20224;-82
2022/12/24 10:02:12;;;;;;;2.17;1.00;;;;;;;11.22;63.66;95642.28;6069531;23;20181;-84
2022/12/24 10:04:38;;;;;;;2.20;0.73;;;;;;;11.29;63.07;95638.03;6068387;23;20184;-83
2022/12/24 10:07:19;;;;;;;2.00;0.80;;;;;;;11.24;63.33;95640.34;6068693;23;20196;-83
2022/12/24 10:09:54;;;;;;;0.73;0.70;;;;;;;11.26;62.85;95633.22;6068317;23;20165;-82
2022/12/24 10:12:26;;;;;;;2.47;1.00;;;;;;;11.24;63.11;95640.34;6069077;23;20169;-83
2022/12/24 10:15:07;;;;;;;1.00;0.80;;;;;;;11.28;62.97;95633.84;6068855;23;20291;-83
2022/12/24 10:17:52;;;;;;;0.90;0.77;;;;;;;11.23;62.81;95641.31;6068911;23;20161;-83
2022/12/24 10:20:31;;;;;;;1.30;0.90;;;;;;;11.25;62.31;95634.22;6065915;23;20200;-83
2022/12/24 10:23:02;;;;;;;1.30;1.00;;;;;;;11.27;61.91;95636.59;6068238;23;20309;-83
2022/12/24 10:25:33;;;;;;;1.43;0.83;;;;;;;11.40;61.63;95634.19;6067696;23;20169;-83
2022/12/24 10:28:05;;;;;;;1.80;1.00;;;;;;;11.49;61.93;95645.22;6067501;23;20189;-83
2022/12/24 10:30:33;;;;;;;1.90;0.90;;;;;;;11.46;61.64;95645.56;6067929;23;20209;-83
2022/12/24 10:33:00;;;;;;;2.10;1.00;;;;;;;11.44;61.49;95643.16;6067181;23;20670;-83
2022/12/24 10:35:32;;;;;;;0.70;0.70;;;;;;;11.39;61.34;95641.13;6067953;23;20180;-83
2022/12/24 10:37:58;;;;;;;2.03;0.90;;;;;;;11.43;61.64;95646.72;6065780;23;20169;-82
2022/12/24 10:40:32;;;;;;;1.10;0.80;;;;;;;11.36;61.29;95638.09;6067325;23;20220;-83
2022/12/24 10:42:58;;;;;;;1.10;0.70;;;;;;;11.32;61.12;95645.41;6067460;23;20172;-83
2022/12/24 10:45:30;;;;;;;1.87;1.00;;;;;;;11.31;61.48;95633.50;6066882;23;20183;-83
2022/12/24 10:48:04;;;;;;;1.93;0.90;;;;;;;11.35;61.79;95636.53;6066624;23;20192;-83
2022/12/24 10:50:35;;;;;;;1.10;0.87;;;;;;;11.34;61.64;95635.72;6067563;23;20201;-83
2022/12/24 10:53:13;;;;;;;1.17;0.77;;;;;;;11.28;61.60;95635.63;6067696;23;20598;-82
2022/12/24 10:55:39;;;;;;;2.03;0.90;;;;;;;11.29;61.88;95653.50;6068756;23;20167;-83
2022/12/24 10:58:13;;;;;;;2.00;1.10;;;;;;;11.37;61.76;95653.38;6066273;23;20181;-84
2022/12/24 11:00:40;;;;;;;2.57;1.10;;;;;;;11.54;61.78;95653.22;6067274;23;20535;-83
2022/12/24 11:03:23;;;;;;;1.43;0.70;;;;;;;11.56;60.83;95651.22;6068181;23;20177;-84
2022/12/24 11:06:04;;;;;;;2.00;0.90;;;;;;;11.86;60.77;95645.06;6066896;23;20363;-83
2022/12/24 11:08:32;;;;;;;3.67;1.10;;;;;;;12.08;59.78;95651.84;6067667;23;20165;-82
2022/12/24 11:11:01;;;;;;;2.10;1.00;;;;;;;12.30;59.69;95651.84;6067648;23;20207;-84
2022/12/24 11:13:30;;;;;;;1.20;1.00;;;;;;;12.62;58.93;95655.69;6068138;23;20564;-83
2022/12/24 11:16:04;;;;;;;2.30;1.10;;;;;;;12.67;57.91;95648.19;6068804;23;20180;-84
2022/12/24 11:18:34;;;;;;;2.73;1.17;;;;;;;12.79;57.60;95652.63;6067277;23;20160;-83
2022/12/24 11:21:01;;;;;;;3.13;0.90;;;;;;;12.76;57.53;95663.34;6068141;23;20209;-84
2022/12/24 11:23:28;;;;;;;1.90;0.90;;;;;;;12.72;57.34;95656.94;6067535;23;20256;-84
2022/12/24 11:25:56;;;;;;;1.27;1.00;;;;;;;12.81;57.06;95642.09;6067489;23;20188;-84
2022/12/24 11:28:25;;;;;;;2.20;1.07;;;;;;;12.69;57.47;95646.19;6069195;23;20197;-84
2022/12/24 11:31:01;;;;;;;1.93;0.90;;;;;;;12.65;57.45;95642.41;6068461;23;20205;-84
2022/12/24 11:33:28;;;;;;;0.97;0.80;;;;;;;12.70;57.45;95632.31;6067774;23;20484;-83
2022/12/24 11:36:02;;;;;;;2.07;0.90;;;;;;;12.75;56.93;95640.25;6069171;23;20236;-82
2022/12/24 11:38:30;;;;;;;1.70;0.80;;;;;;;12.76;57.39;95629.75;6066201;23;20165;-83
2022/12/24 11:41:00;;;;;;;2.03;1.03;;;;;;;12.64;57.46;95628.69;6068462;23;20193;-83
2022/12/24 11:43:43;;;;;;;2.77;1.07;;;;;;;12.52;58.19;95611.28;6067596;23;20173;-83
2022/12/24 11:46:16;;;;;;;1.87;0.90;;;;;;;12.48;58.15;95628.16;6067846;23;20213;-83
2022/12/24 11:48:43;;;;;;;1.23;0.70;;;;;;;12.39;58.42;95622.31;6066759;23;20161;-85
2022/12/24 11:51:22;;;;;;;1.80;1.00;;;;;;;12.48;58.58;95623.78;6067871;23;20204;-83